Flight Track Log - Related Links

Times and Time Zones

All times are in EDT time to prevent confusion due to time zone crossing. See the WIG1042 flight status page for this flight to view local times or setup timezone preferences in your user account.

Time Position Orientation Groundspeed Altitude Reporting Facility
EDT Latitude Longitude Course Direction KTS MPH feet Rate Location/Type
Fri 07:33:01 AM 43.0000 -71.4500 324° Northwest 157 181 2,700  Level KA90
Fri 07:34:02 AM 43.0333 -71.4833 324° Northwest 162 186 3,800 1,091 Climbing KA90
Fri 07:35:02 AM 43.0667 -71.5333 312° West 160 184 4,900 1,077 Climbing KA90
Fri 07:35:59 AM 43.1000 -71.5667 324° Northwest 163 188 5,900 990 Climbing KA90
Fri 07:36:39 AM 43.1225 -71.6008 312° West 173 199 6,500 900 Climbing Boston Center
Fri 07:37:00 AM 43.0765 -71.5932 324° Northwest  Level FlightAware Approximate
Fri 07:37:39 AM 43.1583 -71.6461 317° Northwest 173 199 7,400  Level Boston Center
Fri 07:38:39 AM 43.1942 -71.6911 318° Northwest 173 199 7,900 300 Climbing Boston Center
Fri 07:39:39 AM 43.2361 -71.7419 319° Northwest 180 207 8,000  Climbing Boston Center
Fri 07:40:39 AM 43.2800 -71.7869 323° Northwest 191 220 7,900 -50 Descending Boston Center
Fri 07:41:39 AM 43.3242 -71.8322 323° Northwest 191 220 7,900 50 Level Boston Center
Fri 07:42:39 AM 43.3681 -71.8775 323° Northwest 196 226 8,000  Climbing Boston Center
Fri 07:43:39 AM 43.4078 -71.9200 322° Northwest 201 231 7,900 -50 Descending Boston Center
Fri 07:44:39 AM 43.4519 -71.9681 322° Northwest 201 231 7,900 -50 Level Boston Center
Fri 07:45:39 AM 43.4936 -72.0194 318° Northwest 201 231 7,800  Descending Boston Center
Fri 07:46:39 AM 43.5378 -72.0650 323° Northwest 201 231 7,900  Climbing Boston Center
Fri 07:47:39 AM 43.5775 -72.1164 317° Northwest 201 231 7,800 -50 Descending Boston Center
Fri 07:48:39 AM 43.6214 -72.1619 323° Northwest 201 231 7,800 50 Level Boston Center
Fri 07:49:39 AM 43.6611 -72.2106 318° Northwest 196 226 7,900 100 Climbing Boston Center
Fri 07:50:39 AM 43.7047 -72.2592 321° Northwest 196 226 8,000 50 Climbing Boston Center
Fri 07:51:39 AM 43.7467 -72.3078 320° Northwest 196 226 8,000  Level Boston Center
Fri 07:52:39 AM 43.7883 -72.3594 318° Northwest 196 226 8,000 -50 Level Boston Center
Fri 07:53:39 AM 43.8322 -72.4114 320° Northwest 196 226 7,900  Descending Boston Center
Fri 07:54:51 AM 43.8739 -72.4603 320° Northwest 196 226 8,000 45 Climbing Boston Center
Fri 07:55:51 AM 43.9258 -72.5181 321° Northwest 196 226 8,000  Level Boston Center
Fri 07:56:51 AM 43.9736 -72.5728 321° Northwest 196 226 8,000  Level Boston Center
Fri 07:57:51 AM 44.0175 -72.6219 321° Northwest 201 231 8,000 -50 Level Boston Center
Fri 07:58:51 AM 44.0589 -72.6683 321° Northwest 201 231 7,900 -50 Descending Boston Center
Fri 07:59:51 AM 44.1047 -72.7206 321° Northwest 207 238 7,900  Level Boston Center
Fri 08:00:51 AM 44.1525 -72.7611 329° Northwest 200 230 7,900  Level Boston Center
Fri 08:01:51 AM 44.2003 -72.8050 327° Northwest 200 230 7,900  Level Boston Center
Fri 08:02:51 AM 44.2439 -72.8400 330° Northwest 200 230 7,900 -200 Level Boston Center
Fri 08:03:51 AM 44.2958 -72.8808 331° Northwest 200 230 7,500 -550 Descending Boston Center
Fri 08:04:51 AM 44.3478 -72.9250 329° Northwest 211 243 6,800 -700 Descending Boston Center
Fri 08:05:51 AM 44.3975 -72.9661 329° Northwest 211 243 6,100 -850 Descending Boston Center
Fri 08:06:51 AM 44.4517 -73.0100 330° Northwest 211 243 5,100 -1,000 Descending Boston Center
Fri 08:07:51 AM 44.4931 -73.0686 315° West 211 243 4,100 -950 Descending Boston Center
Fri 08:08:51 AM 44.5322 -73.1447 306° West 223 257 3,200 -600 Descending Boston Center
Fri 08:09:51 AM 44.5672 -73.2006 311° West 217 250 2,900 -150 Descending Boston Center
Fri 08:10:51 AM 44.6064 -73.2506 318° Northwest 199 229 2,900  Level Boston Center
Fri 08:12:00 AM 44.5538 -73.2125 153° Southeast  Level Estimated
Fri 08:19:00 AM 44.4719 -73.1533 153° Southeast  Level Estimated
Fri 08:20:00 AM 44.4719 -73.1533 55° Northeast  Level Estimated

Login

Don't have an account? Register now (free) for customized features, flight alerts, and more!